createdAt,value
2022-11-05T00:00:15.687Z,10.90
2022-11-05T00:03:00.536Z,10.90
2022-11-05T00:05:46.633Z,10.90
2022-11-05T00:08:32.702Z,10.90
2022-11-05T00:11:01.368Z,10.90
2022-11-05T00:13:48.499Z,10.90
2022-11-05T00:16:36.544Z,10.90
2022-11-05T00:19:07.673Z,10.90
2022-11-05T00:21:54.761Z,10.90
2022-11-05T00:24:40.989Z,10.90
2022-11-05T00:27:10.606Z,10.90
2022-11-05T00:29:40.318Z,10.90
2022-11-05T00:32:08.666Z,10.90
2022-11-05T00:34:37.122Z,10.90
2022-11-05T00:37:05.857Z,10.90
2022-11-05T00:39:34.304Z,10.90
2022-11-05T00:42:19.843Z,10.90
2022-11-05T00:45:04.550Z,10.90
2022-11-05T00:47:52.111Z,10.80
2022-11-05T00:50:22.545Z,10.90
2022-11-05T00:52:59.301Z,10.80
2022-11-05T00:55:30.838Z,10.80
2022-11-05T00:57:59.531Z,10.80
2022-11-05T01:00:30.981Z,10.80
2022-11-05T01:03:00.818Z,10.80
2022-11-05T01:05:39.327Z,10.80
2022-11-05T01:08:08.977Z,10.80
2022-11-05T01:10:41.714Z,10.80
2022-11-05T01:13:13.213Z,10.80
2022-11-05T01:15:43.750Z,10.80
2022-11-05T01:18:12.398Z,10.80
2022-11-05T01:20:41.431Z,10.80
2022-11-05T01:23:13.592Z,10.70
2022-11-05T01:25:42.629Z,10.80
2022-11-05T01:28:11.386Z,10.70
2022-11-05T01:30:40.435Z,10.70
2022-11-05T01:33:11.689Z,10.80
2022-11-05T01:35:40.941Z,10.80
2022-11-05T01:38:09.206Z,10.80
2022-11-05T01:40:37.475Z,10.80
2022-11-05T01:43:13.657Z,10.80
2022-11-05T01:45:42.995Z,10.80
2022-11-05T01:48:16.970Z,10.80
2022-11-05T01:50:49.583Z,10.80
2022-11-05T01:53:26.023Z,10.80
2022-11-05T01:55:58.732Z,10.90
2022-11-05T01:58:32.671Z,10.80
2022-11-05T02:01:01.313Z,10.80
2022-11-05T02:03:31.719Z,10.80
2022-11-05T02:06:01.993Z,10.80
2022-11-05T02:08:49.805Z,10.80
2022-11-05T02:11:20.887Z,10.80
2022-11-05T02:13:50.375Z,10.80
2022-11-05T02:16:29.888Z,10.70
2022-11-05T02:19:07.760Z,10.70
2022-11-05T02:22:13.467Z,10.70
2022-11-05T02:25:10.688Z,10.70
2022-11-05T02:28:16.149Z,10.70
2022-11-05T02:30:50.426Z,10.70
2022-11-05T02:33:36.798Z,10.70
2022-11-05T02:36:34.549Z,10.70
2022-11-05T02:39:14.508Z,10.70
2022-11-05T02:41:51.169Z,10.70
2022-11-05T02:44:28.675Z,10.70
2022-11-05T02:47:06.813Z,10.60
2022-11-05T02:49:42.383Z,10.70
2022-11-05T02:52:17.420Z,10.70
2022-11-05T02:54:53.719Z,10.70
2022-11-05T02:57:23.659Z,10.70
2022-11-05T03:00:02.159Z,10.70
2022-11-05T03:02:32.322Z,10.70
2022-11-05T03:05:01.213Z,10.70
2022-11-05T03:07:41.868Z,10.70
2022-11-05T03:10:34.784Z,10.80
2022-11-05T03:13:18.279Z,10.80
2022-11-05T03:15:55.865Z,10.70
2022-11-05T03:18:31.612Z,10.70
2022-11-05T03:21:06.387Z,10.70
2022-11-05T03:23:40.467Z,10.80
2022-11-05T03:26:17.697Z,10.80
2022-11-05T03:28:50.035Z,10.80
2022-11-05T03:31:19.854Z,10.80
2022-11-05T03:33:50.893Z,10.80
2022-11-05T03:36:25.815Z,10.90
2022-11-05T03:38:57.285Z,10.80
2022-11-05T03:41:26.667Z,10.80
2022-11-05T03:43:59.654Z,10.80
2022-11-05T03:46:30.985Z,10.80
2022-11-05T03:49:05.002Z,10.90
2022-11-05T03:51:39.831Z,10.90
2022-11-05T03:54:08.619Z,10.80
2022-11-05T03:56:41.329Z,10.80
2022-11-05T03:59:11.878Z,10.80
2022-11-05T04:01:40.552Z,10.80
2022-11-05T04:04:12.228Z,10.80
2022-11-05T04:06:58.096Z,10.80
2022-11-05T04:09:43.652Z,10.80
2022-11-05T04:12:29.660Z,10.80
2022-11-05T04:14:57.925Z,10.80
2022-11-05T04:17:25.194Z,10.80
2022-11-05T04:20:12.476Z,10.90
2022-11-05T04:22:57.895Z,10.90
2022-11-05T04:25:26.132Z,10.90
2022-11-05T04:27:54.516Z,10.90
2022-11-05T04:30:22.789Z,10.90
2022-11-05T04:33:06.867Z,10.90
2022-11-05T04:35:38.602Z,10.80
2022-11-05T04:38:09.158Z,10.80
2022-11-05T04:40:38.109Z,10.90
2022-11-05T04:43:13.634Z,10.80
2022-11-05T04:45:43.668Z,10.90
2022-11-05T04:48:12.483Z,10.90
2022-11-05T04:50:42.173Z,10.90
2022-11-05T04:53:10.645Z,11.00
2022-11-05T04:55:39.175Z,11.00
2022-11-05T04:58:07.475Z,11.10
2022-11-05T05:00:35.766Z,11.00
2022-11-05T05:03:04.195Z,11.10
2022-11-05T05:05:32.503Z,11.00
2022-11-05T05:08:04.604Z,11.00
2022-11-05T05:10:33.193Z,11.00
2022-11-05T05:13:01.452Z,11.00
2022-11-05T05:15:29.905Z,11.00
2022-11-05T05:17:58.153Z,10.90
2022-11-05T05:20:44.140Z,11.00
2022-11-05T05:23:13.894Z,11.00
2022-11-05T05:25:42.292Z,11.00
2022-11-05T05:28:10.758Z,11.00
2022-11-05T05:30:39.059Z,10.90
2022-11-05T05:33:07.617Z,10.90
2022-11-05T05:35:36.112Z,10.90
2022-11-05T05:38:04.523Z,10.90
2022-11-05T05:40:34.192Z,10.80
2022-11-05T05:43:02.455Z,10.90
2022-11-05T05:45:30.665Z,10.90
2022-11-05T05:47:58.885Z,10.80
2022-11-05T05:50:27.082Z,10.90
2022-11-05T05:52:55.316Z,10.80
2022-11-05T05:55:23.512Z,10.70
2022-11-05T05:57:53.116Z,10.80
2022-11-05T06:00:22.683Z,10.80
2022-11-05T06:02:52.386Z,10.80
2022-11-05T06:05:20.675Z,10.80
2022-11-05T06:07:55.597Z,10.80
2022-11-05T06:10:24.140Z,10.60
2022-11-05T06:12:53.831Z,10.70
2022-11-05T06:15:22.317Z,10.60
2022-11-05T06:17:50.580Z,10.70
2022-11-05T06:20:20.100Z,10.60
2022-11-05T06:22:55.757Z,10.60
2022-11-05T06:25:24.578Z,10.60
2022-11-05T06:27:54.622Z,10.60
2022-11-05T06:30:24.052Z,10.60
2022-11-05T06:32:52.652Z,10.60
2022-11-05T06:35:20.952Z,10.50
2022-11-05T06:37:49.176Z,10.50
2022-11-05T06:40:17.593Z,10.50
2022-11-05T06:42:45.898Z,10.50
2022-11-05T06:45:15.644Z,10.50
2022-11-05T06:47:43.912Z,10.40
2022-11-05T06:50:12.139Z,10.50
2022-11-05T06:52:41.394Z,10.40
2022-11-05T06:55:10.471Z,10.40
2022-11-05T06:57:42.659Z,10.50
2022-11-05T07:00:11.761Z,10.50
2022-11-05T07:02:42.407Z,10.50
2022-11-05T07:05:11.915Z,10.60
2022-11-05T07:07:40.912Z,10.60
2022-11-05T07:10:12.542Z,10.60
2022-11-05T07:12:40.899Z,10.60
2022-11-05T07:15:10.521Z,10.50
2022-11-05T07:17:39.064Z,10.60
2022-11-05T07:20:10.829Z,10.60
2022-11-05T07:22:39.386Z,10.70
2022-11-05T07:25:08.617Z,10.70
2022-11-05T07:27:40.695Z,10.80
2022-11-05T07:30:10.813Z,10.80
2022-11-05T07:32:40.000Z,10.90
2022-11-05T07:35:11.102Z,10.90
2022-11-05T07:37:46.268Z,11.00
2022-11-05T07:40:15.599Z,11.00
2022-11-05T07:42:45.857Z,11.00
2022-11-05T07:45:14.343Z,11.00
2022-11-05T07:47:47.937Z,11.10
2022-11-05T07:50:18.265Z,11.10
2022-11-05T07:52:47.992Z,11.20
2022-11-05T07:55:20.611Z,11.20
2022-11-05T07:57:50.688Z,11.30
2022-11-05T08:00:21.551Z,11.40
2022-11-05T08:03:05.566Z,11.40
2022-11-05T08:05:38.851Z,11.50
2022-11-05T08:08:09.160Z,11.50
2022-11-05T08:10:38.561Z,11.40
2022-11-05T08:13:08.119Z,11.40
2022-11-05T08:15:36.865Z,11.40
2022-11-05T08:18:06.801Z,11.40
2022-11-05T08:20:38.570Z,11.40
2022-11-05T08:23:07.511Z,11.50
2022-11-05T08:25:36.318Z,11.50
2022-11-05T08:28:07.485Z,11.40
2022-11-05T08:30:36.621Z,11.40
2022-11-05T08:33:07.085Z,11.30
2022-11-05T08:35:38.400Z,11.20
2022-11-05T08:38:08.996Z,11.10
2022-11-05T08:40:38.304Z,11.10
2022-11-05T08:43:09.867Z,11.10
2022-11-05T08:45:39.532Z,11.10
2022-11-05T08:48:10.502Z,11.20
2022-11-05T08:50:40.780Z,11.20
2022-11-05T08:53:10.889Z,11.30
2022-11-05T08:55:39.754Z,11.40
2022-11-05T08:58:12.515Z,11.50
2022-11-05T09:00:42.024Z,11.70
2022-11-05T09:03:11.616Z,11.80
2022-11-05T09:05:43.034Z,11.90
2022-11-05T09:08:12.976Z,12.10
2022-11-05T09:10:42.646Z,12.20
2022-11-05T09:13:17.838Z,12.30
2022-11-05T09:15:48.044Z,12.40
2022-11-05T09:18:17.353Z,12.50
2022-11-05T09:20:47.667Z,12.50
2022-11-05T09:23:16.151Z,12.50
2022-11-05T09:25:46.726Z,12.40
2022-11-05T09:28:17.520Z,12.40
2022-11-05T09:30:48.051Z,12.40
2022-11-05T09:33:18.893Z,12.50
2022-11-05T09:35:49.168Z,12.50
2022-11-05T09:38:17.822Z,12.60
2022-11-05T09:40:53.519Z,12.70
2022-11-05T09:43:31.221Z,12.70
2022-11-05T09:46:04.327Z,12.70
2022-11-05T09:48:34.929Z,12.80
2022-11-05T09:51:06.399Z,12.90
2022-11-05T09:53:40.326Z,13.00
2022-11-05T09:56:23.112Z,13.00
2022-11-05T09:58:55.708Z,13.10
2022-11-05T10:01:28.279Z,13.20
2022-11-05T10:04:00.434Z,13.30
2022-11-05T10:06:30.344Z,13.50
2022-11-05T10:09:06.669Z,13.60
2022-11-05T10:11:41.287Z,13.80
2022-11-05T10:14:17.874Z,14.00
2022-11-05T10:16:52.570Z,14.00
2022-11-05T10:19:25.130Z,14.10
2022-11-05T10:22:06.941Z,14.10
2022-11-05T10:24:46.421Z,14.10
2022-11-05T10:27:18.765Z,14.10
2022-11-05T10:29:48.011Z,14.10
2022-11-05T10:32:26.642Z,14.20
2022-11-05T10:34:58.426Z,14.20
2022-11-05T10:37:29.856Z,14.30
2022-11-05T10:39:58.537Z,14.40
2022-11-05T10:42:41.812Z,14.50
2022-11-05T10:45:22.245Z,14.60
2022-11-05T10:48:01.075Z,14.90
2022-11-05T10:50:30.720Z,15.40
2022-11-05T10:53:03.026Z,15.60
2022-11-05T10:55:33.798Z,15.90
2022-11-05T10:58:10.683Z,16.20
2022-11-05T11:00:39.439Z,16.40
2022-11-05T11:03:36.026Z,16.60
2022-11-05T11:06:07.770Z,16.80
2022-11-05T11:08:37.862Z,17.30
2022-11-05T11:11:11.509Z,17.90
2022-11-05T11:13:59.635Z,18.20
2022-11-05T11:16:30.835Z,18.00
2022-11-05T11:19:01.101Z,17.50
2022-11-05T11:21:31.043Z,16.90
2022-11-05T11:24:03.356Z,16.20
2022-11-05T11:26:34.505Z,15.70
2022-11-05T11:29:08.581Z,15.40
2022-11-05T11:31:40.680Z,15.10
2022-11-05T11:34:18.068Z,14.80
2022-11-05T11:36:48.864Z,14.60
2022-11-05T11:39:20.717Z,14.50
2022-11-05T11:41:53.393Z,14.40
2022-11-05T11:44:26.929Z,14.60
2022-11-05T11:46:58.365Z,15.00
2022-11-05T11:49:34.076Z,15.20
2022-11-05T11:52:08.174Z,15.20
2022-11-05T11:54:38.000Z,15.10
2022-11-05T11:57:22.584Z,14.90
2022-11-05T12:02:56.001Z,14.50
2022-11-05T12:05:37.439Z,14.30
2022-11-05T12:08:18.151Z,14.20
2022-11-05T12:10:56.873Z,14.10
2022-11-05T12:13:56.953Z,14.10
2022-11-05T12:16:52.518Z,14.20
2022-11-05T12:19:41.802Z,14.50
2022-11-05T12:22:19.376Z,14.60
2022-11-05T12:25:06.820Z,14.60
2022-11-05T12:27:59.001Z,14.60
2022-11-05T12:30:36.230Z,14.60
2022-11-05T12:33:28.407Z,14.70
2022-11-05T12:36:10.141Z,15.00
2022-11-05T12:39:00.039Z,15.30
2022-11-05T12:41:33.515Z,15.50
2022-11-05T12:44:16.977Z,15.70
2022-11-05T12:46:59.769Z,15.90
2022-11-05T12:49:47.978Z,16.00
2022-11-05T12:52:52.884Z,16.10
2022-11-05T12:55:24.467Z,16.10
2022-11-05T12:57:56.239Z,16.30
2022-11-05T13:00:28.217Z,16.70
2022-11-05T13:03:07.191Z,17.40
2022-11-05T13:05:38.563Z,18.50
2022-11-05T13:08:11.247Z,19.80
2022-11-05T13:10:45.543Z,20.20
2022-11-05T13:13:19.145Z,21.00
2022-11-05T13:15:52.867Z,21.50
2022-11-05T13:18:27.594Z,22.00
2022-11-05T13:20:57.682Z,22.50
2022-11-05T13:23:33.486Z,23.00
2022-11-05T13:26:08.363Z,22.90
2022-11-05T13:28:45.386Z,22.30
2022-11-05T13:31:19.907Z,22.30
2022-11-05T13:33:50.744Z,22.30
2022-11-05T13:36:41.688Z,22.50
2022-11-05T13:39:17.782Z,22.90
2022-11-05T13:42:00.439Z,23.30
2022-11-05T13:44:58.639Z,23.40
2022-11-05T13:47:54.288Z,22.70
2022-11-05T13:50:47.680Z,22.20
2022-11-05T13:53:39.669Z,21.40
2022-11-05T13:56:23.171Z,20.20
2022-11-05T13:59:04.037Z,19.50
2022-11-05T14:01:50.072Z,18.80
2022-11-05T14:04:33.562Z,18.20
2022-11-05T14:07:11.224Z,17.70
2022-11-05T14:09:41.375Z,17.40
2022-11-05T14:12:20.958Z,17.10
2022-11-05T14:14:58.844Z,17.00
2022-11-05T14:17:33.052Z,16.90
2022-11-05T14:20:25.259Z,16.80
2022-11-05T14:22:54.400Z,16.60
2022-11-05T14:25:55.768Z,16.40
2022-11-05T14:28:47.471Z,16.30
2022-11-05T14:31:47.219Z,16.10
2022-11-05T14:34:23.905Z,16.00
2022-11-05T14:37:25.624Z,15.90
2022-11-05T14:39:55.494Z,15.80
2022-11-05T14:42:27.709Z,15.70
2022-11-05T14:45:23.637Z,15.60
2022-11-05T14:47:55.379Z,15.70
2022-11-05T14:50:31.697Z,15.80
2022-11-05T14:53:13.532Z,15.90
2022-11-05T14:55:44.596Z,16.00
2022-11-05T14:58:36.828Z,16.50
2022-11-05T15:01:07.728Z,17.20
2022-11-05T15:04:01.873Z,18.00
2022-11-05T15:06:33.394Z,18.60
2022-11-05T15:09:19.466Z,18.80
2022-11-05T15:12:00.240Z,18.70
2022-11-05T15:14:33.718Z,18.40
2022-11-05T15:17:13.299Z,17.90
2022-11-05T15:19:43.642Z,17.40
2022-11-05T15:22:25.475Z,16.90
2022-11-05T15:24:55.799Z,16.40
2022-11-05T15:27:40.844Z,15.90
2022-11-05T15:30:17.263Z,15.50
2022-11-05T15:32:45.645Z,15.10
2022-11-05T15:35:26.943Z,14.70
2022-11-05T15:38:02.199Z,14.30
2022-11-05T15:40:33.717Z,14.00
2022-11-05T15:43:17.423Z,13.80
2022-11-05T15:45:59.411Z,13.50
2022-11-05T15:48:28.577Z,13.30
2022-11-05T15:50:57.341Z,13.10
2022-11-05T15:53:56.085Z,12.90
2022-11-05T15:56:28.196Z,12.70
2022-11-05T15:59:00.719Z,12.50
2022-11-05T16:01:32.827Z,12.40
2022-11-05T16:04:09.731Z,12.20
2022-11-05T16:06:40.913Z,12.00
2022-11-05T16:09:20.321Z,11.70
2022-11-05T16:11:51.118Z,11.50
2022-11-05T16:14:21.446Z,11.30
2022-11-05T16:16:49.910Z,11.10
2022-11-05T16:19:40.853Z,10.90
2022-11-05T16:22:10.220Z,10.70
2022-11-05T16:24:38.992Z,10.60
2022-11-05T16:27:19.395Z,10.40
2022-11-05T16:29:53.948Z,10.20
2022-11-05T16:32:30.236Z,10.10
2022-11-05T16:35:02.309Z,10.00
2022-11-05T16:37:46.324Z,9.90
2022-11-05T16:40:18.514Z,9.80
2022-11-05T16:42:51.275Z,9.70
2022-11-05T16:45:22.898Z,9.70
2022-11-05T16:47:51.716Z,9.70
2022-11-05T16:50:27.628Z,9.60
2022-11-05T16:52:56.094Z,9.50
2022-11-05T16:55:24.641Z,9.50
2022-11-05T16:57:56.645Z,9.50
2022-11-05T17:00:26.344Z,9.50
2022-11-05T17:02:55.183Z,9.50
2022-11-05T17:05:26.264Z,9.50
2022-11-05T17:07:55.350Z,9.50
2022-11-05T17:10:25.158Z,9.50
2022-11-05T17:12:55.274Z,9.50
2022-11-05T17:15:25.953Z,9.50
2022-11-05T17:17:55.374Z,9.50
2022-11-05T17:20:42.744Z,9.40
2022-11-05T17:23:12.617Z,9.40
2022-11-05T17:25:42.220Z,9.30
2022-11-05T17:28:13.908Z,9.30
2022-11-05T17:30:46.643Z,9.20
2022-11-05T17:33:20.107Z,9.10
2022-11-05T17:35:50.129Z,9.00
2022-11-05T17:38:21.961Z,9.00
2022-11-05T17:40:50.618Z,8.90
2022-11-05T17:43:20.726Z,8.80
2022-11-05T17:45:52.088Z,8.70
2022-11-05T17:48:22.551Z,8.70
2022-11-05T17:50:51.853Z,8.70
2022-11-05T17:53:21.193Z,8.70
2022-11-05T17:55:50.559Z,8.70
2022-11-05T17:58:21.429Z,8.60
2022-11-05T18:00:50.029Z,8.60
2022-11-05T18:03:18.686Z,8.60
2022-11-05T18:05:47.264Z,8.60
2022-11-05T18:08:15.660Z,8.70
2022-11-05T18:10:44.118Z,8.70
2022-11-05T18:13:13.004Z,8.70
2022-11-05T18:15:43.629Z,8.70
2022-11-05T18:18:12.228Z,8.70
2022-11-05T18:20:44.492Z,8.70
2022-11-05T18:23:14.246Z,8.70
2022-11-05T18:25:44.209Z,8.70
2022-11-05T18:28:12.828Z,8.60
2022-11-05T18:30:43.119Z,8.60
2022-11-05T18:33:11.913Z,8.60
2022-11-05T18:35:46.301Z,8.50
2022-11-05T18:38:15.535Z,8.50
2022-11-05T18:40:44.195Z,8.40
2022-11-05T18:43:13.051Z,8.40
2022-11-05T18:45:43.035Z,8.30
2022-11-05T18:48:12.211Z,8.30
2022-11-05T18:50:41.003Z,8.30
2022-11-05T18:53:09.726Z,8.30
2022-11-05T18:55:40.227Z,8.20
2022-11-05T18:58:09.890Z,8.20
2022-11-05T19:00:41.422Z,8.10
2022-11-05T19:03:11.471Z,8.10
2022-11-05T19:05:40.994Z,8.00
2022-11-05T19:08:09.599Z,8.00
2022-11-05T19:10:41.272Z,7.90
2022-11-05T19:13:09.669Z,7.80
2022-11-05T19:15:38.262Z,7.70
2022-11-05T19:18:06.944Z,7.60
2022-11-05T19:20:37.909Z,7.50
2022-11-05T19:23:07.017Z,7.50
2022-11-05T19:25:37.917Z,7.40
2022-11-05T19:28:07.018Z,7.40
2022-11-05T19:30:35.780Z,7.30
2022-11-05T19:33:04.352Z,7.30
2022-11-05T19:35:35.708Z,7.30
2022-11-05T19:38:10.372Z,7.40
2022-11-05T19:40:39.067Z,7.50
2022-11-05T19:43:07.468Z,7.50
2022-11-05T19:45:44.534Z,7.50
2022-11-05T19:48:19.059Z,7.40
2022-11-05T19:50:48.808Z,7.40
2022-11-05T19:53:18.739Z,7.30
2022-11-05T19:55:47.072Z,7.30
2022-11-05T19:58:15.999Z,7.20
2022-11-05T20:00:44.773Z,7.10
2022-11-05T20:03:14.305Z,7.10
2022-11-05T20:05:43.394Z,7.00
2022-11-05T20:08:12.085Z,7.00
2022-11-05T20:10:42.130Z,6.90
2022-11-05T20:13:14.274Z,6.90
2022-11-05T20:15:46.460Z,6.80
2022-11-05T20:18:16.471Z,6.70
2022-11-05T20:20:45.134Z,6.70
2022-11-05T20:23:14.407Z,6.60
2022-11-05T20:25:44.515Z,6.60
2022-11-05T20:28:13.236Z,6.60
2022-11-05T20:30:42.095Z,6.60
2022-11-05T20:33:10.574Z,6.50
2022-11-05T20:35:40.930Z,6.50
2022-11-05T20:38:09.823Z,6.50
2022-11-05T20:40:42.235Z,6.40
2022-11-05T20:43:12.046Z,6.40
2022-11-05T20:45:40.403Z,6.40
2022-11-05T20:48:08.952Z,6.30
2022-11-05T20:50:41.625Z,6.30
2022-11-05T20:53:10.358Z,6.20
2022-11-05T20:55:44.152Z,6.20
2022-11-05T20:58:15.259Z,6.10
2022-11-05T21:00:50.053Z,6.10
2022-11-05T21:03:19.036Z,6.00
2022-11-05T21:05:48.215Z,6.00
2022-11-05T21:08:16.820Z,6.00
2022-11-05T21:10:51.006Z,6.00
2022-11-05T21:13:21.347Z,5.90
2022-11-05T21:15:52.156Z,5.90
2022-11-05T21:18:23.903Z,5.90
2022-11-05T21:20:52.996Z,5.90
2022-11-05T21:23:22.010Z,5.90
2022-11-05T21:25:50.457Z,5.90
2022-11-05T21:28:21.351Z,5.90
2022-11-05T21:30:50.041Z,5.90
2022-11-05T21:33:19.802Z,5.90
2022-11-05T21:35:50.247Z,5.80
2022-11-05T21:38:19.362Z,5.80
2022-11-05T21:40:48.351Z,5.80
2022-11-05T21:43:16.986Z,5.70
2022-11-05T21:45:46.988Z,5.70
2022-11-05T21:48:16.092Z,5.70
2022-11-05T21:51:07.188Z,5.70
2022-11-05T21:53:53.132Z,5.70
2022-11-05T21:56:42.570Z,5.70
2022-11-05T21:59:30.725Z,5.70
2022-11-05T22:02:02.526Z,5.70
2022-11-05T22:04:32.123Z,5.60
2022-11-05T22:07:01.200Z,5.60
2022-11-05T22:09:32.770Z,5.60
2022-11-05T22:12:01.818Z,5.50
2022-11-05T22:14:31.283Z,5.50
2022-11-05T22:17:01.297Z,5.50
2022-11-05T22:19:30.690Z,5.50
2022-11-05T22:21:58.943Z,5.50
2022-11-05T22:24:28.041Z,5.50
2022-11-05T22:26:56.305Z,5.50
2022-11-05T22:29:24.746Z,5.60
2022-11-05T22:31:53.033Z,5.50
2022-11-05T22:34:22.685Z,5.50
2022-11-05T22:36:50.981Z,5.50
2022-11-05T22:39:19.366Z,5.50
2022-11-05T22:41:47.843Z,5.50
2022-11-05T22:44:17.442Z,5.50
2022-11-05T22:46:45.727Z,5.50
2022-11-05T22:49:14.278Z,5.60
2022-11-05T22:51:44.327Z,5.70
2022-11-05T22:54:13.019Z,5.70
2022-11-05T22:56:44.072Z,5.80
2022-11-05T22:59:14.710Z,5.80
2022-11-05T23:01:44.071Z,5.80
2022-11-05T23:04:13.321Z,5.80
2022-11-05T23:07:00.307Z,5.80
2022-11-05T23:09:48.992Z,5.80
2022-11-05T23:12:24.318Z,5.80
2022-11-05T23:14:53.192Z,5.90
2022-11-05T23:17:39.678Z,5.90
2022-11-05T23:20:29.432Z,6.00
2022-11-05T23:23:17.237Z,6.00
2022-11-05T23:25:46.052Z,6.00
2022-11-05T23:28:15.406Z,5.90
2022-11-05T23:30:59.391Z,6.00
2022-11-05T23:33:28.222Z,6.00
2022-11-05T23:36:14.181Z,6.00
2022-11-05T23:38:43.848Z,6.00
2022-11-05T23:41:29.335Z,5.90
2022-11-05T23:44:14.947Z,5.90
2022-11-05T23:47:00.463Z,5.90
2022-11-05T23:49:28.794Z,5.90
2022-11-05T23:51:57.047Z,5.90
2022-11-05T23:54:27.180Z,5.90
2022-11-05T23:56:55.410Z,6.00
2022-11-05T23:59:23.878Z,6.00
